createdAt,value
2022-08-05T00:28:29.437Z,968.08
2022-08-05T00:29:18.090Z,968.07
2022-08-05T00:30:18.141Z,968.06
2022-08-05T00:31:53.400Z,968.01
2022-08-05T00:32:18.295Z,968.05
2022-08-05T00:34:55.924Z,968.08
2022-08-05T00:34:55.925Z,968.09
2022-08-05T00:35:18.429Z,968.06
2022-08-05T00:37:11.391Z,968.06
2022-08-05T00:37:18.540Z,968.10
2022-08-05T00:38:18.563Z,968.07
2022-08-05T00:39:18.696Z,968.09
2022-08-05T00:40:26.622Z,968.10
2022-08-05T00:41:18.764Z,968.08
2022-08-05T00:42:31.413Z,968.10
2022-08-05T00:43:18.832Z,968.06
2022-08-05T00:44:18.884Z,968.08
2022-08-05T00:45:28.093Z,968.08
2022-08-05T00:46:19.022Z,968.06
2022-08-05T00:47:19.045Z,968.11
2022-08-05T00:48:31.251Z,968.12
2022-08-05T00:49:19.150Z,968.16
2022-08-05T00:50:20.910Z,968.18
2022-08-05T00:51:50.572Z,968.17
2022-08-05T00:52:28.248Z,968.17
2022-08-05T00:54:01.063Z,968.19
2022-08-05T00:54:19.427Z,968.19
2022-08-05T00:55:19.470Z,968.21
2022-08-05T00:56:22.793Z,968.24
2022-08-05T00:57:21.256Z,968.24
2022-08-05T00:58:19.661Z,968.26
2022-08-05T00:59:19.681Z,968.27
2022-08-05T01:00:19.898Z,968.28
2022-08-05T01:01:19.803Z,968.30
2022-08-05T01:02:19.839Z,968.32
2022-08-05T01:03:22.538Z,968.31
2022-08-05T01:04:26.831Z,968.33
2022-08-05T01:05:20.026Z,968.34
2022-08-05T01:06:20.082Z,968.36
2022-08-05T01:07:20.107Z,968.32
2022-08-05T01:08:40.333Z,968.38
2022-08-05T01:09:20.402Z,968.39
2022-08-05T01:10:20.267Z,968.41
2022-08-05T01:11:22.646Z,968.40
2022-08-05T01:12:20.374Z,968.43
2022-08-05T01:13:22.393Z,968.42
2022-08-05T01:14:27.898Z,968.44
2022-08-05T01:15:35.239Z,968.45
2022-08-05T01:16:20.953Z,968.46
2022-08-05T01:17:21.223Z,968.44
2022-08-05T01:18:20.690Z,968.48
2022-08-05T01:19:20.742Z,968.49
2022-08-05T01:20:20.826Z,968.49
2022-08-05T01:21:22.780Z,968.53
2022-08-05T01:22:24.172Z,968.58
2022-08-05T01:23:23.259Z,968.57
2022-08-05T01:24:21.013Z,968.61
2022-08-05T01:25:21.064Z,968.64
2022-08-05T01:26:21.120Z,968.62
2022-08-05T01:27:22.099Z,968.63
2022-08-05T01:28:21.252Z,968.65
2022-08-05T01:29:23.150Z,968.64
2022-08-05T01:30:21.333Z,968.68
2022-08-05T01:31:21.388Z,968.69
2022-08-05T01:32:21.440Z,968.70
2022-08-05T01:33:21.524Z,968.73
2022-08-05T01:34:21.551Z,968.70
2022-08-05T01:35:51.153Z,968.76
2022-08-05T01:36:21.652Z,968.78
2022-08-05T01:37:25.144Z,968.79
2022-08-05T01:38:27.266Z,968.75
2022-08-05T01:39:45.693Z,968.76
2022-08-05T01:40:21.865Z,968.74
2022-08-05T01:41:44.512Z,968.74
2022-08-05T01:42:21.973Z,968.73
2022-08-05T01:43:24.056Z,968.77
2022-08-05T01:44:22.099Z,968.74
2022-08-05T01:45:22.131Z,968.75
2022-08-05T01:46:42.191Z,968.78
2022-08-05T01:47:22.401Z,968.74
2022-08-05T01:48:22.303Z,968.79
2022-08-05T01:49:24.131Z,968.78
2022-08-05T01:50:28.813Z,968.77
2022-08-05T01:51:22.451Z,968.80
2022-08-05T01:52:22.532Z,968.76
2022-08-05T01:53:54.993Z,968.83
2022-08-05T01:54:24.624Z,968.84
2022-08-05T01:55:22.667Z,968.83
2022-08-05T01:58:10.381Z,968.87
2022-08-05T01:58:11.649Z,968.85
2022-08-05T01:58:40.690Z,968.88
2022-08-05T01:59:22.881Z,968.90
2022-08-05T02:00:30.469Z,968.90
2022-08-05T02:01:25.342Z,968.99
2022-08-05T02:02:26.222Z,969.03
2022-08-05T02:03:31.276Z,969.09
2022-08-05T02:04:23.145Z,969.10
2022-08-05T02:05:23.467Z,969.13
2022-08-05T02:06:33.493Z,969.14
2022-08-05T02:07:23.484Z,969.11
2022-08-05T02:08:30.869Z,969.17
2022-08-05T02:09:23.410Z,969.17
2022-08-05T02:10:28.366Z,969.17
2022-08-05T02:11:23.832Z,969.16
2022-08-05T02:12:23.594Z,969.21
2022-08-05T02:13:23.627Z,969.21
2022-08-05T02:14:23.679Z,969.23
2022-08-05T02:15:23.731Z,969.22
2022-08-05T02:16:23.785Z,969.22
2022-08-05T02:18:28.745Z,969.26
2022-08-05T02:18:32.276Z,969.30
2022-08-05T02:19:23.943Z,969.33
2022-08-05T02:20:23.997Z,969.30
2022-08-05T02:21:24.048Z,969.31
2022-08-05T02:22:26.495Z,969.32
2022-08-05T02:23:24.181Z,969.31
2022-08-05T02:24:24.215Z,969.32
2022-08-05T02:25:24.289Z,969.35
2022-08-05T02:26:24.315Z,969.38
2022-08-05T02:27:29.898Z,969.43
2022-08-05T02:28:28.874Z,969.39
2022-08-05T02:29:58.000Z,969.41
2022-08-05T02:30:24.556Z,969.43
2022-08-05T02:31:24.581Z,969.51
2022-08-05T02:32:30.855Z,969.53
2022-08-05T02:33:35.950Z,969.57
2022-08-05T02:34:24.743Z,969.64
2022-08-05T02:35:28.164Z,969.68
2022-08-05T02:36:24.848Z,969.68
2022-08-05T02:37:25.144Z,969.72
2022-08-05T02:38:26.914Z,969.74
2022-08-05T02:39:25.063Z,969.70
2022-08-05T02:40:25.091Z,969.68
2022-08-05T02:41:29.009Z,969.63
2022-08-05T02:42:25.729Z,969.57
2022-08-05T02:43:25.219Z,969.48
2022-08-05T02:44:25.272Z,969.49
2022-08-05T02:45:25.589Z,969.45
2022-08-05T02:46:27.429Z,969.53
2022-08-05T02:47:25.571Z,969.48
2022-08-05T02:48:29.295Z,969.48
2022-08-05T02:49:25.541Z,969.45
2022-08-05T02:50:25.613Z,969.54
2022-08-05T02:51:28.222Z,969.59
2022-08-05T02:52:29.639Z,969.59
2022-08-05T02:53:25.752Z,969.72
2022-08-05T02:54:36.506Z,969.70
2022-08-05T02:55:54.093Z,969.68
2022-08-05T02:56:25.909Z,969.69
2022-08-05T02:58:10.618Z,969.70
2022-08-05T02:58:26.771Z,969.67
2022-08-05T02:59:26.950Z,969.67
2022-08-05T03:00:26.146Z,969.63
2022-08-05T03:01:27.190Z,969.63
2022-08-05T03:02:27.556Z,969.67
2022-08-05T03:03:26.280Z,969.66
2022-08-05T03:04:26.333Z,969.70
2022-08-05T03:06:54.113Z,969.70
2022-08-05T03:06:56.815Z,969.74
2022-08-05T03:08:00.705Z,969.70
2022-08-05T03:08:29.535Z,969.72
2022-08-05T03:09:36.130Z,969.73
2022-08-05T03:10:26.653Z,969.75
2022-08-05T03:11:54.714Z,969.71
2022-08-05T03:12:26.785Z,969.78
2022-08-05T03:13:27.716Z,969.70
2022-08-05T03:14:26.869Z,969.65
2022-08-05T03:15:26.923Z,969.70
2022-08-05T03:16:26.974Z,969.69
2022-08-05T03:17:27.052Z,969.71
2022-08-05T03:18:30.053Z,969.68
2022-08-05T03:19:33.702Z,969.67
2022-08-05T03:20:27.184Z,969.65
2022-08-05T03:21:28.963Z,969.62
2022-08-05T03:22:31.986Z,969.64
2022-08-05T03:23:27.346Z,969.60
2022-08-05T03:24:30.076Z,969.60
2022-08-05T03:25:32.762Z,969.60
2022-08-05T03:26:31.322Z,969.57
2022-08-05T03:27:29.618Z,969.56
2022-08-05T03:28:27.613Z,969.58
2022-08-05T03:29:45.357Z,969.56
2022-08-05T03:30:30.279Z,969.54
2022-08-05T03:31:57.122Z,969.53
2022-08-05T03:32:31.017Z,969.50
2022-08-05T03:33:32.241Z,969.46
2022-08-05T03:34:27.930Z,969.48
2022-08-05T03:35:28.019Z,969.42
2022-08-05T03:36:30.433Z,969.37
2022-08-05T03:37:28.091Z,969.38
2022-08-05T03:38:33.256Z,969.35
2022-08-05T03:39:28.270Z,969.27
2022-08-05T03:40:32.353Z,969.27
2022-08-05T03:41:33.230Z,969.24
2022-08-05T03:42:29.203Z,969.22
2022-08-05T03:44:08.730Z,969.22
2022-08-05T03:44:29.066Z,969.20
2022-08-05T03:45:28.546Z,969.13
2022-08-05T03:46:30.050Z,969.11
2022-08-05T03:47:30.532Z,969.07
2022-08-05T03:48:29.318Z,969.06
2022-08-05T03:49:30.995Z,968.98
2022-08-05T03:50:28.816Z,968.95
2022-08-05T03:52:37.866Z,968.97
2022-08-05T03:52:50.352Z,968.93
2022-08-05T03:55:06.959Z,968.98
2022-08-05T03:55:53.477Z,968.94
2022-08-05T03:56:06.287Z,968.96
2022-08-05T03:56:31.899Z,968.98
2022-08-05T03:59:47.011Z,969.07
2022-08-05T04:00:39.280Z,969.08
2022-08-05T04:01:39.386Z,969.11
2022-08-05T04:02:47.890Z,969.08
2022-08-05T04:03:39.441Z,969.09
2022-08-05T04:04:39.489Z,968.99
2022-08-05T04:05:40.221Z,969.01
2022-08-05T04:06:47.327Z,968.98
2022-08-05T04:07:57.324Z,968.93
2022-08-05T04:08:39.734Z,968.91
2022-08-05T04:09:39.756Z,968.83
2022-08-05T04:10:39.832Z,968.84
2022-08-05T04:11:47.342Z,968.87
2022-08-05T04:13:03.399Z,968.88
2022-08-05T04:13:50.103Z,968.90
2022-08-05T04:14:40.021Z,968.96
2022-08-05T04:16:03.374Z,969.02
2022-08-05T04:16:40.131Z,969.13
2022-08-05T04:17:56.639Z,969.19
2022-08-05T04:18:40.266Z,969.19
2022-08-05T04:19:40.287Z,969.20
2022-08-05T04:20:41.344Z,969.25
2022-08-05T04:22:09.624Z,969.17
2022-08-05T04:22:40.445Z,969.10
2022-08-05T04:24:01.100Z,969.07
2022-08-05T04:24:44.504Z,969.07
2022-08-05T04:26:00.329Z,969.09
2022-08-05T04:26:40.659Z,969.13
2022-08-05T04:27:43.766Z,969.21
2022-08-05T04:28:51.108Z,969.22
2022-08-05T04:29:40.813Z,969.20
2022-08-05T04:30:40.869Z,969.15
2022-08-05T04:31:40.958Z,969.15
2022-08-05T04:32:40.975Z,969.08
2022-08-05T04:34:19.273Z,969.04
2022-08-05T04:34:43.328Z,968.97
2022-08-05T04:36:11.255Z,968.91
2022-08-05T04:36:46.108Z,968.87
2022-08-05T04:38:01.647Z,968.81
2022-08-05T04:38:41.291Z,968.84
2022-08-05T04:39:41.445Z,968.89
2022-08-05T04:40:44.572Z,968.97
2022-08-05T04:41:41.451Z,968.97
2022-08-05T04:42:41.507Z,968.96
2022-08-05T04:43:48.304Z,968.95
2022-08-05T04:44:41.608Z,968.98
2022-08-05T04:45:48.224Z,969.01
2022-08-05T04:46:41.721Z,969.08
2022-08-05T04:47:44.923Z,969.05
2022-08-05T04:48:41.820Z,969.05
2022-08-05T04:50:03.040Z,969.10
2022-08-05T04:51:01.988Z,969.06
2022-08-05T04:51:41.983Z,969.01
2022-08-05T04:52:42.057Z,969.00
2022-08-05T04:53:42.083Z,969.01
2022-08-05T04:54:42.138Z,969.05
2022-08-05T04:56:15.025Z,969.03
2022-08-05T04:56:42.285Z,969.00
2022-08-05T04:57:42.294Z,969.01
2022-08-05T04:58:42.350Z,969.02
2022-08-05T04:59:42.401Z,969.02
2022-08-05T05:00:42.456Z,969.02
2022-08-05T05:02:06.002Z,969.05
2022-08-05T05:02:43.312Z,969.02
2022-08-05T05:03:42.799Z,969.06
2022-08-05T05:04:44.105Z,969.07
2022-08-05T05:06:39.567Z,969.05
2022-08-05T05:06:49.163Z,968.99
2022-08-05T05:07:45.666Z,968.97
2022-08-05T05:08:42.965Z,969.01
2022-08-05T05:09:42.933Z,968.98
2022-08-05T05:10:54.773Z,969.01
2022-08-05T05:11:54.355Z,969.03
2022-08-05T05:12:43.093Z,969.05
2022-08-05T05:13:43.615Z,969.08
2022-08-05T05:14:49.520Z,969.10
2022-08-05T05:15:57.909Z,969.08
2022-08-05T05:16:43.309Z,969.13
2022-08-05T05:17:56.988Z,969.15
2022-08-05T05:19:02.546Z,969.19
2022-08-05T05:19:44.160Z,969.18
2022-08-05T05:20:43.535Z,969.21
2022-08-05T05:21:43.565Z,969.21
2022-08-05T05:22:44.093Z,969.23
2022-08-05T05:24:04.035Z,969.25
2022-08-05T05:24:57.109Z,969.25
2022-08-05T05:25:43.776Z,969.24
2022-08-05T05:26:46.422Z,969.25
2022-08-05T05:27:45.339Z,969.26
2022-08-05T05:28:44.958Z,969.28
2022-08-05T05:30:04.859Z,969.30
2022-08-05T05:30:44.045Z,969.29
2022-08-05T05:31:46.321Z,969.28
2022-08-05T05:32:44.156Z,969.25
2022-08-05T05:33:59.663Z,969.24
2022-08-05T05:34:44.257Z,969.20
2022-08-05T05:35:44.348Z,969.23
2022-08-05T05:36:44.371Z,969.24
2022-08-05T05:37:59.625Z,969.25
2022-08-05T05:38:44.469Z,969.28
2022-08-05T05:39:44.537Z,969.26
2022-08-05T05:40:49.453Z,969.32
2022-08-05T05:41:44.657Z,969.27
2022-08-05T05:42:47.098Z,969.28
2022-08-05T05:43:58.329Z,969.28
2022-08-05T05:44:46.062Z,969.28
2022-08-05T05:45:48.253Z,969.32
2022-08-05T05:46:44.931Z,969.32
2022-08-05T05:48:06.371Z,969.32
2022-08-05T05:48:46.095Z,969.32
2022-08-05T05:49:45.066Z,969.31
2022-08-05T05:50:45.111Z,969.34
2022-08-05T05:51:50.018Z,969.36
2022-08-05T05:52:46.591Z,969.38
2022-08-05T05:53:46.146Z,969.42
2022-08-05T05:54:50.225Z,969.47
2022-08-05T05:55:52.162Z,969.55
2022-08-05T05:56:45.436Z,969.56
2022-08-05T05:57:52.284Z,969.57
2022-08-05T05:58:45.540Z,969.65
2022-08-05T05:59:45.594Z,969.63
2022-08-05T06:00:46.411Z,969.65
2022-08-05T06:01:57.322Z,969.67
2022-08-05T06:02:45.786Z,969.68
2022-08-05T06:04:01.771Z,969.70
2022-08-05T06:04:49.182Z,969.69
2022-08-05T06:05:45.908Z,969.70
2022-08-05T06:06:47.329Z,969.69
2022-08-05T06:08:01.218Z,969.68
2022-08-05T06:08:49.090Z,969.67
2022-08-05T06:09:59.909Z,969.63
2022-08-05T06:10:52.610Z,969.67
2022-08-05T06:12:01.713Z,969.67
2022-08-05T06:12:46.319Z,969.69
2022-08-05T06:13:50.482Z,969.67
2022-08-05T06:14:46.431Z,969.65
2022-08-05T06:16:30.644Z,969.71
2022-08-05T06:16:46.614Z,969.71
2022-08-05T06:17:53.609Z,969.71
2022-08-05T06:18:46.621Z,969.73
2022-08-05T06:19:56.283Z,969.73
2022-08-05T06:20:47.783Z,969.75
2022-08-05T06:21:49.623Z,969.76
2022-08-05T06:22:46.900Z,969.77
2022-08-05T06:23:46.923Z,969.84
2022-08-05T06:24:48.415Z,969.87
2022-08-05T06:26:12.976Z,969.86
2022-08-05T07:27:03.771Z,971.19
2022-08-05T07:28:08.287Z,971.20
2022-08-05T07:29:03.845Z,971.21
2022-08-05T07:30:27.292Z,971.25
2022-08-05T07:31:03.984Z,971.26
2022-08-05T07:32:04.099Z,971.30
2022-08-05T07:33:05.128Z,971.28
2022-08-05T07:34:04.130Z,971.31
2022-08-05T07:36:01.694Z,971.29
2022-08-05T07:36:20.822Z,971.21
2022-08-05T07:37:04.299Z,971.24
2022-08-05T08:01:27.752Z,971.37
2022-08-05T08:02:30.803Z,971.40
2022-08-05T08:03:44.590Z,971.40
2022-08-05T08:04:37.843Z,971.37
2022-08-05T08:05:27.902Z,971.36
2022-08-05T08:06:28.195Z,971.40
2022-08-05T08:07:28.653Z,971.40
2022-08-05T08:08:28.076Z,971.44
2022-08-05T08:09:29.079Z,971.45
2022-08-05T08:10:28.240Z,971.53
2022-08-05T08:11:47.451Z,971.56
2022-08-05T08:12:48.750Z,971.60
2022-08-05T08:13:29.313Z,971.62
2022-08-05T08:14:28.437Z,971.64
2022-08-05T08:16:33.300Z,971.63
2022-08-05T08:16:35.348Z,971.63
2022-08-05T08:17:28.617Z,971.65
2022-08-05T08:18:28.677Z,971.65
2022-08-05T08:20:10.232Z,971.60
2022-08-05T08:20:44.266Z,971.59
2022-08-05T08:21:28.854Z,971.57
2022-08-05T08:22:28.913Z,971.57
2022-08-05T08:24:01.193Z,971.59
2022-08-05T08:24:51.635Z,971.55
2022-08-05T08:25:59.980Z,971.56
2022-08-05T08:26:30.028Z,971.55
2022-08-05T08:27:39.846Z,971.56
2022-08-05T08:28:35.518Z,971.55
2022-08-05T08:30:05.916Z,971.54
2022-08-05T08:30:37.649Z,971.56
2022-08-05T08:31:29.485Z,971.54
2022-08-05T08:32:29.512Z,971.55
2022-08-05T08:33:29.572Z,971.59
2022-08-05T08:34:30.637Z,971.61
2022-08-05T08:35:35.136Z,971.61
2022-08-05T08:36:49.931Z,971.64
2022-08-05T08:37:29.836Z,971.68
2022-08-05T08:38:35.273Z,971.69
2022-08-05T08:39:29.983Z,971.65
2022-08-05T08:40:29.996Z,971.66
2022-08-05T08:41:50.697Z,971.69
2022-08-05T08:42:34.150Z,971.70
2022-08-05T08:45:18.466Z,971.70
2022-08-05T08:45:23.521Z,971.70
2022-08-05T08:45:30.494Z,971.71
2022-08-05T08:46:30.407Z,971.72
2022-08-05T08:48:05.947Z,971.72
2022-08-05T08:48:42.690Z,971.74
2022-08-05T08:50:14.208Z,971.79
2022-08-05T08:51:03.832Z,971.79
2022-08-05T08:52:03.025Z,971.77
2022-08-05T08:52:30.731Z,971.82
2022-08-05T08:53:30.788Z,971.85
2022-08-05T08:54:30.880Z,971.89
2022-08-05T08:56:01.964Z,971.90
2022-08-05T08:56:30.967Z,971.91
2022-08-05T08:57:42.377Z,971.96
2022-08-05T09:08:34.158Z,971.96
2022-08-05T09:09:02.258Z,971.91
2022-08-05T09:09:35.804Z,971.89
2022-08-05T09:10:35.038Z,971.89
2022-08-05T09:11:52.686Z,971.90
2022-08-05T09:12:35.400Z,971.90
2022-08-05T09:14:09.417Z,971.88
2022-08-05T09:14:56.854Z,971.86
2022-08-05T09:15:36.840Z,971.88
2022-08-05T09:16:35.946Z,971.88
2022-08-05T09:17:43.041Z,971.89
2022-08-05T09:18:39.012Z,971.92
2022-08-05T09:20:04.744Z,971.95
2022-08-05T09:20:37.267Z,971.91
2022-08-05T09:23:27.255Z,971.92
2022-08-05T09:24:24.410Z,971.95
2022-08-05T09:25:24.423Z,971.94
2022-08-05T11:08:02.405Z,970.99
2022-08-05T11:08:56.413Z,971.07
2022-08-05T11:10:09.499Z,971.01
2022-08-05T11:11:00.910Z,970.99
2022-08-05T11:11:56.644Z,971.05
2022-08-05T11:12:56.693Z,971.03
2022-08-05T11:13:58.301Z,971.02
2022-08-05T11:15:00.896Z,970.92
2022-08-05T11:16:00.688Z,970.97
2022-08-05T11:16:59.370Z,970.97
2022-08-05T11:18:03.912Z,971.03
2022-08-05T11:18:57.030Z,971.04
2022-08-05T11:20:17.163Z,971.01
2022-08-05T11:20:57.164Z,971.04
2022-08-05T11:21:57.927Z,971.01
2022-08-05T11:23:01.997Z,971.02
2022-08-05T11:24:05.286Z,971.02
2022-08-05T11:25:16.800Z,970.97
2022-08-05T11:26:04.251Z,970.93
2022-08-05T11:26:57.508Z,970.89
2022-08-05T11:28:00.774Z,970.93
2022-08-05T11:28:58.701Z,970.87
2022-08-05T11:29:57.693Z,970.84
2022-08-05T11:30:58.396Z,970.87
2022-08-05T11:32:01.044Z,970.87
2022-08-05T11:32:58.800Z,970.92
2022-08-05T11:33:58.615Z,970.84
2022-08-05T11:34:59.833Z,970.88
2022-08-05T11:36:04.491Z,970.86
2022-08-05T11:36:58.162Z,970.83
2022-08-05T11:38:37.397Z,970.82
2022-08-05T11:38:58.606Z,970.81
2022-08-05T11:40:03.248Z,970.82
2022-08-05T11:41:01.374Z,970.79
2022-08-05T11:42:04.276Z,970.81
2022-08-05T11:42:58.497Z,970.82
2022-08-05T11:43:58.607Z,970.81
2022-08-05T11:44:58.622Z,970.78
2022-08-05T11:46:32.110Z,970.76
2022-08-05T11:47:14.179Z,970.73
2022-08-05T11:47:58.867Z,970.70
2022-08-05T11:48:58.911Z,970.64
2022-08-05T11:49:58.930Z,970.62
2022-08-05T11:50:59.813Z,970.69
2022-08-05T11:51:59.130Z,970.68
2022-08-05T11:52:59.166Z,970.67
2022-08-05T11:53:59.185Z,970.65
2022-08-05T11:54:59.245Z,970.65
2022-08-05T11:55:59.305Z,970.63
2022-08-05T11:56:59.369Z,970.57
2022-08-05T11:58:09.175Z,970.60
2022-08-05T11:58:59.526Z,970.65
2022-08-05T11:59:59.791Z,970.62
2022-08-05T12:00:59.644Z,970.61
2022-08-05T12:01:59.687Z,970.59
2022-08-05T12:03:01.349Z,970.58
2022-08-05T12:04:20.874Z,970.59
2022-08-05T12:05:00.149Z,970.59
2022-08-05T12:05:59.996Z,970.60
2022-08-05T12:06:59.994Z,970.61
2022-08-05T12:08:07.283Z,970.59
2022-08-05T12:09:00.144Z,970.61
2022-08-05T12:10:04.407Z,970.61
2022-08-05T12:11:05.486Z,970.56
2022-08-05T12:12:00.311Z,970.53
2022-08-05T12:13:00.504Z,970.55
2022-08-05T12:14:04.349Z,970.57
2022-08-05T12:15:00.505Z,970.53
2022-08-05T12:16:00.663Z,970.53
2022-08-05T12:17:00.655Z,970.56
2022-08-05T12:18:03.868Z,970.52
2022-08-05T12:19:03.366Z,970.54
2022-08-05T12:20:27.313Z,970.50
2022-08-05T12:21:00.877Z,970.48
2022-08-05T12:22:01.096Z,970.50
2022-08-05T12:23:01.014Z,970.45
2022-08-05T12:24:05.130Z,970.47
2022-08-05T12:25:01.132Z,970.47
2022-08-05T12:26:01.199Z,970.46
2022-08-05T12:27:09.470Z,970.43
2022-08-05T12:28:02.457Z,970.43
2022-08-05T12:29:03.161Z,970.38
2022-08-05T12:30:03.303Z,970.32
2022-08-05T12:31:01.911Z,970.33
2022-08-05T12:32:02.000Z,970.30
2022-08-05T12:33:07.264Z,970.25
2022-08-05T12:34:01.697Z,970.34
2022-08-05T12:41:59.770Z,970.33
2022-08-05T12:42:54.659Z,970.35
2022-08-05T12:43:55.398Z,970.29
2022-08-05T12:45:17.277Z,970.30
2022-08-05T12:45:54.880Z,970.29
2022-08-05T12:46:54.926Z,970.26
2022-08-05T12:48:01.493Z,970.26
2022-08-05T12:48:55.037Z,970.23
2022-08-05T12:50:03.284Z,970.27
2022-08-05T12:50:55.160Z,970.27
2022-08-05T12:52:13.481Z,970.27
2022-08-05T12:52:55.320Z,970.25
2022-08-05T12:54:16.959Z,970.20
2022-08-05T12:54:55.570Z,970.22
2022-08-05T12:57:28.844Z,970.19
2022-08-05T12:58:50.750Z,970.15
2022-08-05T13:02:02.216Z,970.13
2022-08-05T13:02:02.520Z,970.14
2022-08-05T13:02:50.987Z,970.13
2022-08-05T13:03:49.586Z,970.11
2022-08-05T13:04:52.509Z,970.11
2022-08-05T13:05:51.186Z,970.12
2022-08-05T13:06:52.228Z,970.09
2022-08-05T13:08:00.572Z,970.03
2022-08-05T13:08:52.444Z,970.01
2022-08-05T13:09:51.161Z,969.99
2022-08-05T13:11:00.884Z,970.03
2022-08-05T13:14:05.324Z,969.98
2022-08-05T13:14:19.378Z,969.96
2022-08-05T13:15:24.520Z,969.97
2022-08-05T13:16:39.896Z,969.92
2022-08-05T13:17:20.495Z,969.98
2022-08-05T13:18:19.766Z,969.98
2022-08-05T13:19:19.753Z,969.94
2022-08-05T13:20:23.649Z,969.94
2022-08-05T13:21:18.960Z,969.95
2022-08-05T13:22:34.341Z,969.90
2022-08-05T13:23:22.691Z,969.87
2022-08-05T13:24:36.206Z,969.81
2022-08-05T13:25:22.228Z,969.86
2022-08-05T13:26:24.075Z,969.83
2022-08-05T13:27:23.202Z,969.84
2022-08-05T13:28:26.954Z,969.82
2022-08-05T14:48:35.773Z,969.05
2022-08-05T14:49:08.891Z,969.08
2022-08-05T14:50:18.336Z,969.09
2022-08-05T14:51:08.884Z,969.07
2022-08-05T14:52:10.162Z,969.08
2022-08-05T14:53:09.307Z,969.06
2022-08-05T14:54:28.504Z,969.08
2022-08-05T14:55:09.349Z,969.06
2022-08-05T14:56:09.193Z,969.07
2022-08-05T14:57:09.770Z,969.06
2022-08-05T14:58:12.046Z,969.05
2022-08-05T14:59:09.438Z,969.04
2022-08-05T15:00:09.437Z,969.04
2022-08-05T15:01:16.034Z,969.06
2022-08-05T15:02:15.012Z,969.06
2022-08-05T15:03:09.670Z,969.06
2022-08-05T15:04:09.697Z,969.06
2022-08-05T15:05:13.645Z,969.07
2022-08-05T15:06:14.775Z,969.06
2022-08-05T15:07:09.860Z,969.05
2022-08-05T15:08:18.069Z,969.08
2022-08-05T15:09:10.037Z,969.12
2022-08-05T15:10:10.129Z,969.07
2022-08-05T15:11:10.113Z,969.11
2022-08-05T15:12:17.312Z,969.14
2022-08-05T15:13:12.007Z,969.15
2022-08-05T15:14:10.406Z,969.16
2022-08-05T15:15:10.776Z,969.18
2022-08-05T15:16:10.950Z,969.17
2022-08-05T15:17:45.633Z,969.15
2022-08-05T15:18:11.619Z,969.17
2022-08-05T15:19:23.282Z,969.20
2022-08-05T15:20:18.834Z,969.19
2022-08-05T15:21:11.180Z,969.19
2022-08-05T15:22:11.066Z,969.20
2022-08-05T15:23:10.808Z,969.18
2022-08-05T15:24:10.930Z,969.20
2022-08-05T15:25:14.134Z,969.19
2022-08-05T15:26:11.185Z,969.22
2022-08-05T15:27:11.120Z,969.23
2022-08-05T15:28:13.406Z,969.22
2022-08-05T15:29:11.165Z,969.21
2022-08-05T15:30:14.132Z,969.19
2022-08-05T15:31:12.447Z,969.15
2022-08-05T15:32:13.349Z,969.16
2022-08-05T16:10:17.341Z,969.35
2022-08-05T16:10:50.177Z,969.35
2022-08-05T16:11:53.036Z,969.33
2022-08-05T16:12:50.300Z,969.29
2022-08-05T16:13:50.441Z,969.30
2022-08-05T16:14:50.390Z,969.31
2022-08-05T16:15:50.454Z,969.30
2022-08-05T16:16:50.508Z,969.32
2022-08-05T16:17:57.418Z,969.30
2022-08-05T16:19:09.859Z,969.32
2022-08-05T16:20:04.905Z,969.28
2022-08-05T16:20:50.726Z,969.27
2022-08-05T16:22:00.733Z,969.29
2022-08-05T16:22:50.881Z,969.31
2022-08-05T16:23:53.708Z,969.28
2022-08-05T16:24:51.990Z,969.28
2022-08-05T16:25:55.883Z,969.28
2022-08-05T16:26:51.068Z,969.23
2022-08-05T16:28:05.348Z,969.24
2022-08-05T16:28:51.179Z,969.27
2022-08-05T16:29:51.376Z,969.24
2022-08-05T16:30:51.306Z,969.27
2022-08-05T16:31:57.062Z,969.27
2022-08-05T16:32:51.445Z,969.22
2022-08-05T16:33:51.516Z,969.25
2022-08-05T16:34:51.561Z,969.22
2022-08-05T16:35:53.051Z,969.19
2022-08-05T16:36:51.639Z,969.21
2022-08-05T16:38:16.225Z,969.17
2022-08-05T16:38:54.283Z,969.20
2022-08-05T16:40:06.347Z,969.19
2022-08-05T16:40:59.897Z,969.17
2022-08-05T16:42:13.748Z,969.18
2022-08-05T16:42:51.983Z,969.17
2022-08-05T16:43:56.246Z,969.15
2022-08-05T16:44:54.183Z,969.19
2022-08-05T16:46:04.728Z,969.14
2022-08-05T16:46:55.411Z,969.12
2022-08-05T16:47:55.589Z,969.14
2022-08-05T16:48:52.654Z,969.14
2022-08-05T16:49:52.373Z,969.13
2022-08-05T16:50:52.475Z,969.11
2022-08-05T16:51:54.850Z,969.16
2022-08-05T16:52:52.744Z,969.20
2022-08-05T16:54:04.304Z,969.19
2022-08-05T16:54:52.671Z,969.20
2022-08-05T16:55:52.737Z,969.18
2022-08-05T16:56:52.776Z,969.22
2022-08-05T16:58:00.021Z,969.23
2022-08-05T16:58:52.940Z,969.23
2022-08-05T17:00:01.555Z,969.21
2022-08-05T17:00:53.092Z,969.22
2022-08-05T17:01:55.871Z,969.18
2022-08-05T17:02:53.121Z,969.19
2022-08-05T17:03:53.185Z,969.13
2022-08-05T17:04:53.239Z,969.13
2022-08-05T17:05:54.282Z,969.08
2022-08-05T17:06:53.783Z,969.11
2022-08-05T17:07:54.983Z,969.09
2022-08-05T17:08:54.473Z,969.11
2022-08-05T17:09:57.770Z,969.12
2022-08-05T17:10:53.572Z,969.12
2022-08-05T17:12:00.000Z,969.14
2022-08-05T17:12:53.807Z,969.13
2022-08-05T17:14:00.200Z,969.14
2022-08-05T17:14:53.858Z,969.18
2022-08-05T17:16:02.812Z,969.20
2022-08-05T17:16:53.978Z,969.22
2022-08-05T17:17:55.236Z,969.22
2022-08-05T17:18:54.065Z,969.22
2022-08-05T17:19:55.669Z,969.18
2022-08-05T17:20:54.142Z,969.20
2022-08-05T17:21:54.205Z,969.18
2022-08-05T17:22:55.630Z,969.16
2022-08-05T17:24:05.988Z,969.14
2022-08-05T17:24:57.421Z,969.14
2022-08-05T17:25:54.427Z,969.14
2022-08-05T17:26:55.319Z,969.11
2022-08-05T17:27:54.553Z,969.11
2022-08-05T17:28:54.663Z,969.03
2022-08-05T17:30:00.847Z,969.03
2022-08-05T17:30:54.716Z,968.97
2022-08-05T17:31:57.020Z,968.99
2022-08-05T17:32:54.830Z,968.99
2022-08-05T17:33:54.915Z,968.99
2022-08-05T17:34:54.935Z,968.99
2022-08-05T17:36:08.159Z,968.99
2022-08-05T17:36:55.074Z,969.02
2022-08-05T17:38:00.612Z,969.01
2022-08-05T17:38:55.242Z,969.04
2022-08-05T17:39:55.995Z,969.08
2022-08-05T17:40:55.280Z,969.07
2022-08-05T17:42:18.954Z,969.09
2022-08-05T17:42:55.436Z,969.09
2022-08-05T17:43:55.448Z,969.07
2022-08-05T17:44:55.523Z,969.08
2022-08-05T17:45:55.643Z,969.07
2022-08-05T17:46:55.650Z,969.03
2022-08-05T17:47:56.309Z,969.02
2022-08-05T17:48:55.721Z,969.02
2022-08-05T17:50:03.615Z,969.00
2022-08-05T17:50:55.846Z,969.02
2022-08-05T17:51:55.955Z,968.99
2022-08-05T17:52:55.950Z,969.00
2022-08-05T17:53:56.004Z,968.96
2022-08-05T17:54:56.066Z,969.00
2022-08-05T17:55:56.128Z,969.02
2022-08-05T17:56:56.248Z,969.03
2022-08-05T17:57:56.373Z,969.00
2022-08-05T17:58:56.303Z,969.04
2022-08-05T18:00:03.734Z,969.12
2022-08-05T18:00:57.096Z,969.10
2022-08-05T18:01:56.479Z,969.18
2022-08-05T18:02:56.764Z,969.24
2022-08-05T18:03:59.200Z,969.32
2022-08-05T18:04:56.680Z,969.41
2022-08-05T18:06:01.876Z,969.45
2022-08-05T18:07:00.569Z,969.50
2022-08-05T18:07:57.005Z,969.52
2022-08-05T18:08:56.858Z,969.55
2022-08-05T18:09:58.677Z,969.57
2022-08-05T18:10:58.580Z,969.57
2022-08-05T18:11:57.193Z,969.59
2022-08-05T18:12:57.085Z,969.60
2022-08-05T18:13:57.129Z,969.62
2022-08-05T18:14:57.186Z,969.67
2022-08-05T18:15:57.262Z,969.72
2022-08-05T18:16:57.322Z,969.77
2022-08-05T18:17:58.739Z,969.81
2022-08-05T18:18:58.023Z,969.86
2022-08-05T18:19:57.482Z,969.89
2022-08-05T18:20:57.515Z,969.95
2022-08-05T18:22:09.568Z,969.95